sensor_id;sensor_type;location;lat;lon;timestamp;pressure;altitude;pressure_sealevel;temperature;humidity
19676;BME280;39539;52.202;9.876;2023-06-10T00:01:23;100911.28;;;16.68;74.98
19676;BME280;39539;52.202;9.876;2023-06-10T00:03:50;100912.81;;;16.64;74.40
19676;BME280;39539;52.202;9.876;2023-06-10T00:06:15;100898.72;;;16.39;75.93
19676;BME280;39539;52.202;9.876;2023-06-10T00:08:40;100901.50;;;16.33;75.88
19676;BME280;39539;52.202;9.876;2023-06-10T00:11:07;100917.72;;;16.38;75.74
19676;BME280;39539;52.202;9.876;2023-06-10T00:13:32;100913.78;;;16.29;76.83
19676;BME280;39539;52.202;9.876;2023-06-10T00:15:58;100904.50;;;16.20;76.91
19676;BME280;39539;52.202;9.876;2023-06-10T00:18:23;100904.88;;;16.11;77.78
19676;BME280;39539;52.202;9.876;2023-06-10T00:20:48;100914.53;;;16.12;77.30
19676;BME280;39539;52.202;9.876;2023-06-10T00:23:18;100910.13;;;16.06;77.34
19676;BME280;39539;52.202;9.876;2023-06-10T00:25:43;100914.78;;;16.11;76.61
19676;BME280;39539;52.202;9.876;2023-06-10T00:28:08;100902.28;;;16.05;76.10
19676;BME280;39539;52.202;9.876;2023-06-10T00:30:34;100910.94;;;16.07;76.05
19676;BME280;39539;52.202;9.876;2023-06-10T00:32:59;100907.59;;;16.00;76.68
19676;BME280;39539;52.202;9.876;2023-06-10T00:35:26;100910.03;;;15.89;77.98
19676;BME280;39539;52.202;9.876;2023-06-10T00:37:52;100903.06;;;15.77;78.54
19676;BME280;39539;52.202;9.876;2023-06-10T00:40:17;100908.19;;;15.66;79.49
19676;BME280;39539;52.202;9.876;2023-06-10T00:42:42;100924.38;;;15.60;80.19
19676;BME280;39539;52.202;9.876;2023-06-10T00:45:08;100917.59;;;15.34;80.86
19676;BME280;39539;52.202;9.876;2023-06-10T00:47:34;100922.41;;;15.32;82.08
19676;BME280;39539;52.202;9.876;2023-06-10T00:50:00;100922.28;;;15.26;82.53
19676;BME280;39539;52.202;9.876;2023-06-10T00:52:28;100931.00;;;15.22;82.80
19676;BME280;39539;52.202;9.876;2023-06-10T00:54:54;100917.13;;;15.13;82.66
19676;BME280;39539;52.202;9.876;2023-06-10T00:57:20;100921.88;;;15.11;84.15
19676;BME280;39539;52.202;9.876;2023-06-10T00:59:48;100927.09;;;14.94;85.28
19676;BME280;39539;52.202;9.876;2023-06-10T01:02:14;100941.09;;;15.08;84.73
19676;BME280;39539;52.202;9.876;2023-06-10T01:04:39;100927.34;;;14.93;85.68
19676;BME280;39539;52.202;9.876;2023-06-10T01:09:55;100934.16;;;14.77;88.18
19676;BME280;39539;52.202;9.876;2023-06-10T01:12:43;100938.16;;;14.56;89.48
19676;BME280;39539;52.202;9.876;2023-06-10T01:15:14;100936.88;;;14.40;90.87
19676;BME280;39539;52.202;9.876;2023-06-10T01:17:54;100941.13;;;14.29;91.70
19676;BME280;39539;52.202;9.876;2023-06-10T01:20:20;100943.22;;;14.27;92.02
19676;BME280;39539;52.202;9.876;2023-06-10T01:22:45;100944.69;;;14.23;92.34
19676;BME280;39539;52.202;9.876;2023-06-10T01:25:11;100946.91;;;14.26;92.30
19676;BME280;39539;52.202;9.876;2023-06-10T01:27:37;100956.88;;;14.37;93.08
19676;BME280;39539;52.202;9.876;2023-06-10T01:30:12;100962.09;;;14.32;94.42
19676;BME280;39539;52.202;9.876;2023-06-10T01:32:44;100955.09;;;14.31;95.45
19676;BME280;39539;52.202;9.876;2023-06-10T01:35:10;100953.47;;;14.12;96.79
19676;BME280;39539;52.202;9.876;2023-06-10T01:37:38;100969.56;;;14.24;96.55
19676;BME280;39539;52.202;9.876;2023-06-10T01:40:05;100967.06;;;14.29;96.66
19676;BME280;39539;52.202;9.876;2023-06-10T01:42:32;100960.31;;;14.08;98.71
19676;BME280;39539;52.202;9.876;2023-06-10T01:44:58;100976.25;;;14.14;98.17
19676;BME280;39539;52.202;9.876;2023-06-10T01:47:24;100971.22;;;14.06;99.25
19676;BME280;39539;52.202;9.876;2023-06-10T01:49:49;100987.16;;;13.95;100.00
19676;BME280;39539;52.202;9.876;2023-06-10T01:52:15;100985.19;;;13.90;100.00
19676;BME280;39539;52.202;9.876;2023-06-10T01:54:40;100987.91;;;13.83;100.00
19676;BME280;39539;52.202;9.876;2023-06-10T01:57:05;100989.66;;;13.71;100.00
19676;BME280;39539;52.202;9.876;2023-06-10T01:59:31;101001.66;;;13.62;100.00
19676;BME280;39539;52.202;9.876;2023-06-10T02:01:56;100991.69;;;13.51;100.00
19676;BME280;39539;52.202;9.876;2023-06-10T02:04:22;100993.59;;;13.43;100.00
19676;BME280;39539;52.202;9.876;2023-06-10T02:06:47;100990.44;;;13.28;100.00
19676;BME280;39539;52.202;9.876;2023-06-10T02:09:13;101002.13;;;13.27;100.00
19676;BME280;39539;52.202;9.876;2023-06-10T02:11:39;100990.22;;;13.23;100.00
19676;BME280;39539;52.202;9.876;2023-06-10T02:14:05;101005.44;;;13.22;100.00
19676;BME280;39539;52.202;9.876;2023-06-10T02:16:30;101002.22;;;13.14;100.00
19676;BME280;39539;52.202;9.876;2023-06-10T02:18:56;101010.22;;;13.14;100.00
19676;BME280;39539;52.202;9.876;2023-06-10T02:21:21;101008.34;;;13.14;100.00
19676;BME280;39539;52.202;9.876;2023-06-10T02:23:47;101005.50;;;13.09;100.00
19676;BME280;39539;52.202;9.876;2023-06-10T02:26:12;101003.47;;;13.04;100.00
19676;BME280;39539;52.202;9.876;2023-06-10T02:28:37;101022.56;;;13.08;100.00
19676;BME280;39539;52.202;9.876;2023-06-10T02:31:03;101015.06;;;12.92;100.00
19676;BME280;39539;52.202;9.876;2023-06-10T02:33:28;101032.06;;;12.97;100.00
19676;BME280;39539;52.202;9.876;2023-06-10T02:35:55;101036.97;;;13.00;100.00
19676;BME280;39539;52.202;9.876;2023-06-10T02:38:20;101043.50;;;13.04;100.00
19676;BME280;39539;52.202;9.876;2023-06-10T02:40:46;101046.78;;;13.07;100.00
19676;BME280;39539;52.202;9.876;2023-06-10T02:43:11;101050.97;;;12.89;100.00
19676;BME280;39539;52.202;9.876;2023-06-10T02:45:36;101047.75;;;12.80;100.00
19676;BME280;39539;52.202;9.876;2023-06-10T02:48:02;101058.19;;;12.82;100.00
19676;BME280;39539;52.202;9.876;2023-06-10T02:50:27;101054.56;;;12.70;100.00
19676;BME280;39539;52.202;9.876;2023-06-10T02:52:52;101056.19;;;12.71;100.00
19676;BME280;39539;52.202;9.876;2023-06-10T02:55:17;101063.16;;;12.72;100.00
19676;BME280;39539;52.202;9.876;2023-06-10T02:57:43;101057.44;;;12.68;100.00
19676;BME280;39539;52.202;9.876;2023-06-10T03:00:08;101058.69;;;12.66;100.00
19676;BME280;39539;52.202;9.876;2023-06-10T03:02:36;101055.59;;;12.69;100.00
19676;BME280;39539;52.202;9.876;2023-06-10T03:05:04;101048.03;;;12.59;100.00
19676;BME280;39539;52.202;9.876;2023-06-10T03:07:30;101044.53;;;12.58;100.00
19676;BME280;39539;52.202;9.876;2023-06-10T03:09:56;101060.34;;;12.60;100.00
19676;BME280;39539;52.202;9.876;2023-06-10T03:12:21;101054.00;;;12.54;100.00
19676;BME280;39539;52.202;9.876;2023-06-10T03:14:47;101067.69;;;12.65;100.00
19676;BME280;39539;52.202;9.876;2023-06-10T03:17:12;101069.59;;;12.57;100.00
19676;BME280;39539;52.202;9.876;2023-06-10T03:19:37;101064.06;;;12.52;100.00
19676;BME280;39539;52.202;9.876;2023-06-10T03:22:10;101066.91;;;12.57;100.00
19676;BME280;39539;52.202;9.876;2023-06-10T03:24:37;101073.88;;;12.58;100.00
19676;BME280;39539;52.202;9.876;2023-06-10T03:27:08;101081.25;;;12.56;100.00
19676;BME280;39539;52.202;9.876;2023-06-10T03:29:34;101072.47;;;12.49;100.00
19676;BME280;39539;52.202;9.876;2023-06-10T03:32:00;101088.28;;;12.44;100.00
19676;BME280;39539;52.202;9.876;2023-06-10T03:34:25;101092.53;;;12.58;100.00
19676;BME280;39539;52.202;9.876;2023-06-10T03:36:51;101089.06;;;12.58;100.00
19676;BME280;39539;52.202;9.876;2023-06-10T03:39:16;101084.53;;;12.58;100.00
19676;BME280;39539;52.202;9.876;2023-06-10T03:41:42;101102.56;;;12.70;100.00
19676;BME280;39539;52.202;9.876;2023-06-10T03:44:07;101095.19;;;12.72;100.00
19676;BME280;39539;52.202;9.876;2023-06-10T03:46:32;101107.88;;;12.83;100.00
19676;BME280;39539;52.202;9.876;2023-06-10T03:48:58;101103.34;;;12.84;100.00
19676;BME280;39539;52.202;9.876;2023-06-10T03:51:26;101113.81;;;12.85;100.00
19676;BME280;39539;52.202;9.876;2023-06-10T03:53:51;101114.03;;;12.77;100.00
19676;BME280;39539;52.202;9.876;2023-06-10T03:56:16;101109.94;;;12.68;100.00
19676;BME280;39539;52.202;9.876;2023-06-10T03:58:42;101109.53;;;12.71;100.00
19676;BME280;39539;52.202;9.876;2023-06-10T04:01:07;101105.44;;;12.75;100.00
19676;BME280;39539;52.202;9.876;2023-06-10T04:03:33;101118.72;;;12.81;100.00
19676;BME280;39539;52.202;9.876;2023-06-10T04:05:58;101122.66;;;12.72;100.00
19676;BME280;39539;52.202;9.876;2023-06-10T04:08:23;101115.88;;;12.76;100.00
19676;BME280;39539;52.202;9.876;2023-06-10T04:10:49;101119.75;;;12.87;100.00
19676;BME280;39539;52.202;9.876;2023-06-10T04:13:14;101118.47;;;12.96;100.00
19676;BME280;39539;52.202;9.876;2023-06-10T04:15:40;101123.56;;;13.04;100.00
19676;BME280;39539;52.202;9.876;2023-06-10T04:18:06;101127.66;;;13.14;100.00
19676;BME280;39539;52.202;9.876;2023-06-10T04:20:31;101121.66;;;13.18;100.00
19676;BME280;39539;52.202;9.876;2023-06-10T04:22:57;101130.25;;;13.34;100.00
19676;BME280;39539;52.202;9.876;2023-06-10T04:25:22;101133.50;;;13.42;100.00
19676;BME280;39539;52.202;9.876;2023-06-10T04:27:49;101128.97;;;13.43;100.00
19676;BME280;39539;52.202;9.876;2023-06-10T04:30:16;101125.06;;;13.45;100.00
19676;BME280;39539;52.202;9.876;2023-06-10T04:32:41;101116.78;;;13.54;100.00
19676;BME280;39539;52.202;9.876;2023-06-10T04:35:07;101127.66;;;13.52;100.00
19676;BME280;39539;52.202;9.876;2023-06-10T04:37:33;101128.53;;;13.78;100.00
19676;BME280;39539;52.202;9.876;2023-06-10T04:39:58;101133.69;;;13.73;100.00
19676;BME280;39539;52.202;9.876;2023-06-10T04:42:24;101147.44;;;14.08;100.00
19676;BME280;39539;52.202;9.876;2023-06-10T04:44:49;101135.13;;;14.07;100.00
19676;BME280;39539;52.202;9.876;2023-06-10T04:47:15;101142.16;;;14.01;100.00
19676;BME280;39539;52.202;9.876;2023-06-10T04:49:42;101122.75;;;14.06;100.00
19676;BME280;39539;52.202;9.876;2023-06-10T04:52:07;101130.06;;;14.17;100.00
19676;BME280;39539;52.202;9.876;2023-06-10T04:54:34;101124.81;;;14.04;100.00
19676;BME280;39539;52.202;9.876;2023-06-10T04:56:59;101133.66;;;14.29;100.00
19676;BME280;39539;52.202;9.876;2023-06-10T04:59:25;101136.56;;;14.28;100.00
19676;BME280;39539;52.202;9.876;2023-06-10T05:01:50;101133.25;;;14.51;100.00
19676;BME280;39539;52.202;9.876;2023-06-10T05:04:16;101138.72;;;14.63;100.00
19676;BME280;39539;52.202;9.876;2023-06-10T05:06:41;101128.38;;;14.66;100.00
19676;BME280;39539;52.202;9.876;2023-06-10T05:09:07;101111.97;;;14.37;100.00
19676;BME280;39539;52.202;9.876;2023-06-10T05:11:32;101115.25;;;14.40;100.00
19676;BME280;39539;52.202;9.876;2023-06-10T05:13:57;101121.13;;;14.48;100.00
19676;BME280;39539;52.202;9.876;2023-06-10T05:16:23;101118.00;;;14.58;100.00
19676;BME280;39539;52.202;9.876;2023-06-10T05:18:49;101127.78;;;15.01;100.00
19676;BME280;39539;52.202;9.876;2023-06-10T05:21:16;101132.97;;;15.14;100.00
19676;BME280;39539;52.202;9.876;2023-06-10T05:23:41;101138.00;;;15.22;100.00
19676;BME280;39539;52.202;9.876;2023-06-10T05:26:06;101116.78;;;15.09;100.00
19676;BME280;39539;52.202;9.876;2023-06-10T05:28:32;101118.00;;;14.76;100.00
19676;BME280;39539;52.202;9.876;2023-06-10T05:30:57;101119.94;;;14.69;100.00
19676;BME280;39539;52.202;9.876;2023-06-10T05:33:22;101128.69;;;14.76;100.00
19676;BME280;39539;52.202;9.876;2023-06-10T05:35:48;101121.34;;;14.53;100.00
19676;BME280;39539;52.202;9.876;2023-06-10T05:38:13;101127.91;;;14.51;100.00
19676;BME280;39539;52.202;9.876;2023-06-10T05:40:38;101125.16;;;14.39;100.00
19676;BME280;39539;52.202;9.876;2023-06-10T05:43:03;101105.41;;;14.15;100.00
19676;BME280;39539;52.202;9.876;2023-06-10T05:45:29;101133.38;;;14.63;100.00
19676;BME280;39539;52.202;9.876;2023-06-10T05:47:54;101120.13;;;14.49;100.00
19676;BME280;39539;52.202;9.876;2023-06-10T05:50:20;101123.47;;;14.63;100.00
19676;BME280;39539;52.202;9.876;2023-06-10T05:52:46;101122.75;;;14.56;100.00
19676;BME280;39539;52.202;9.876;2023-06-10T05:55:11;101121.41;;;14.65;100.00
19676;BME280;39539;52.202;9.876;2023-06-10T05:57:36;101137.25;;;15.03;100.00
19676;BME280;39539;52.202;9.876;2023-06-10T06:00:02;101132.41;;;14.57;100.00
19676;BME280;39539;52.202;9.876;2023-06-10T06:02:28;101143.78;;;14.89;100.00
19676;BME280;39539;52.202;9.876;2023-06-10T06:04:53;101123.03;;;14.66;100.00
19676;BME280;39539;52.202;9.876;2023-06-10T06:07:18;101137.69;;;14.82;100.00
19676;BME280;39539;52.202;9.876;2023-06-10T06:09:46;101142.22;;;14.81;100.00
19676;BME280;39539;52.202;9.876;2023-06-10T06:12:11;101145.03;;;15.05;100.00
19676;BME280;39539;52.202;9.876;2023-06-10T06:14:37;101144.31;;;14.98;100.00
19676;BME280;39539;52.202;9.876;2023-06-10T06:17:05;101139.38;;;15.13;100.00
19676;BME280;39539;52.202;9.876;2023-06-10T06:19:30;101141.84;;;15.45;100.00
19676;BME280;39539;52.202;9.876;2023-06-10T06:21:55;101137.06;;;15.47;100.00
19676;BME280;39539;52.202;9.876;2023-06-10T06:24:21;101141.75;;;15.52;100.00
19676;BME280;39539;52.202;9.876;2023-06-10T06:26:46;101144.78;;;15.55;100.00
19676;BME280;39539;52.202;9.876;2023-06-10T06:29:12;101129.88;;;15.17;100.00
19676;BME280;39539;52.202;9.876;2023-06-10T06:31:37;101141.47;;;15.41;100.00
19676;BME280;39539;52.202;9.876;2023-06-10T06:34:02;101135.13;;;15.54;100.00
19676;BME280;39539;52.202;9.876;2023-06-10T06:36:28;101144.22;;;15.95;100.00
19676;BME280;39539;52.202;9.876;2023-06-10T06:38:53;101154.97;;;16.89;97.32
19676;BME280;39539;52.202;9.876;2023-06-10T06:41:18;101147.59;;;17.37;93.08
19676;BME280;39539;52.202;9.876;2023-06-10T06:43:44;101148.78;;;18.59;85.35
19676;BME280;39539;52.202;9.876;2023-06-10T06:46:10;101146.03;;;18.37;84.31
19676;BME280;39539;52.202;9.876;2023-06-10T06:48:35;101144.06;;;19.10;81.24
19676;BME280;39539;52.202;9.876;2023-06-10T06:51:01;101143.81;;;19.34;79.48
19676;BME280;39539;52.202;9.876;2023-06-10T06:53:28;101139.22;;;19.61;78.57
19676;BME280;39539;52.202;9.876;2023-06-10T06:55:54;101118.28;;;19.68;76.48
19676;BME280;39539;52.202;9.876;2023-06-10T06:58:19;101135.50;;;21.88;70.88
19676;BME280;39539;52.202;9.876;2023-06-10T07:00:46;101118.72;;;21.86;67.07
19676;BME280;39539;52.202;9.876;2023-06-10T07:03:11;101117.09;;;21.55;68.08
19676;BME280;39539;52.202;9.876;2023-06-10T07:05:36;101105.53;;;20.81;68.79
19676;BME280;39539;52.202;9.876;2023-06-10T07:08:02;101109.50;;;21.62;69.11
19676;BME280;39539;52.202;9.876;2023-06-10T07:10:28;101104.94;;;22.99;63.26
19676;BME280;39539;52.202;9.876;2023-06-10T07:12:54;101105.03;;;23.96;61.26
19676;BME280;39539;52.202;9.876;2023-06-10T07:15:19;101103.75;;;25.47;57.29
19676;BME280;39539;52.202;9.876;2023-06-10T07:17:45;101087.34;;;27.45;51.40
19676;BME280;39539;52.202;9.876;2023-06-10T07:20:10;101077.41;;;29.18;48.70
19676;BME280;39539;52.202;9.876;2023-06-10T07:22:36;101067.38;;;28.96;47.42
19676;BME280;39539;52.202;9.876;2023-06-10T07:25:01;101069.97;;;30.09;45.76
19676;BME280;39539;52.202;9.876;2023-06-10T07:27:27;101058.72;;;30.91;44.67
19676;BME280;39539;52.202;9.876;2023-06-10T07:29:52;101040.03;;;30.84;42.88
19676;BME280;39539;52.202;9.876;2023-06-10T07:32:18;101036.13;;;31.85;41.93
19676;BME280;39539;52.202;9.876;2023-06-10T07:34:45;101025.97;;;32.22;40.81
19676;BME280;39539;52.202;9.876;2023-06-10T07:37:11;101016.69;;;32.14;40.21
19676;BME280;39539;52.202;9.876;2023-06-10T07:39:36;100984.78;;;30.85;42.01
19676;BME280;39539;52.202;9.876;2023-06-10T07:42:01;100992.81;;;31.24;41.54
19676;BME280;39539;52.202;9.876;2023-06-10T07:44:27;100983.28;;;33.37;39.50
19676;BME280;39539;52.202;9.876;2023-06-10T07:46:53;100972.25;;;33.21;38.64
19676;BME280;39539;52.202;9.876;2023-06-10T07:49:18;100968.00;;;33.87;38.55
19676;BME280;39539;52.202;9.876;2023-06-10T07:51:44;100960.81;;;35.35;37.56
19676;BME280;39539;52.202;9.876;2023-06-10T07:54:09;100957.22;;;34.53;38.10
19676;BME280;39539;52.202;9.876;2023-06-10T07:56:37;100949.69;;;34.89;37.06
19676;BME280;39539;52.202;9.876;2023-06-10T07:59:02;100940.25;;;33.33;38.12
19676;BME280;39539;52.202;9.876;2023-06-10T08:01:28;100956.19;;;33.55;38.01
19676;BME280;39539;52.202;9.876;2023-06-10T08:03:55;100940.75;;;32.50;38.79
19676;BME280;39539;52.202;9.876;2023-06-10T08:06:20;100956.34;;;33.30;39.36
19676;BME280;39539;52.202;9.876;2023-06-10T08:08:45;100958.59;;;33.57;39.05
19676;BME280;39539;52.202;9.876;2023-06-10T08:11:11;100945.13;;;33.87;38.25
19676;BME280;39539;52.202;9.876;2023-06-10T08:13:36;100941.16;;;34.19;37.23
19676;BME280;39539;52.202;9.876;2023-06-10T08:16:02;100928.00;;;34.13;37.37
19676;BME280;39539;52.202;9.876;2023-06-10T08:18:28;100920.50;;;33.78;37.88
19676;BME280;39539;52.202;9.876;2023-06-10T08:20:53;100921.13;;;33.40;38.70
19676;BME280;39539;52.202;9.876;2023-06-10T08:23:19;100930.22;;;35.04;38.32
19676;BME280;39539;52.202;9.876;2023-06-10T08:25:45;100913.69;;;33.91;37.07
19676;BME280;39539;52.202;9.876;2023-06-10T08:28:10;100914.63;;;34.93;36.34
19676;BME280;39539;52.202;9.876;2023-06-10T08:30:35;100911.59;;;34.39;36.93
19676;BME280;39539;52.202;9.876;2023-06-10T08:33:01;100909.47;;;34.91;35.93
19676;BME280;39539;52.202;9.876;2023-06-10T08:35:26;100907.22;;;34.97;35.91
19676;BME280;39539;52.202;9.876;2023-06-10T08:37:51;100912.44;;;34.05;36.83
19676;BME280;39539;52.202;9.876;2023-06-10T08:40:17;100918.34;;;34.81;37.11
19676;BME280;39539;52.202;9.876;2023-06-10T08:42:49;100933.53;;;35.56;36.45
19676;BME280;39539;52.202;9.876;2023-06-10T08:45:18;100922.56;;;35.63;35.95
19676;BME280;39539;52.202;9.876;2023-06-10T08:47:50;100923.16;;;35.76;35.69
19676;BME280;39539;52.202;9.876;2023-06-10T08:50:18;100922.25;;;35.68;36.26
19676;BME280;39539;52.202;9.876;2023-06-10T08:52:44;100933.28;;;36.18;35.88
19676;BME280;39539;52.202;9.876;2023-06-10T08:55:15;100898.25;;;33.87;36.64
19676;BME280;39539;52.202;9.876;2023-06-10T08:57:45;100913.50;;;32.89;38.79
19676;BME280;39539;52.202;9.876;2023-06-10T09:00:11;100919.09;;;33.21;39.48
19676;BME280;39539;52.202;9.876;2023-06-10T09:02:37;100929.56;;;33.31;38.87
19676;BME280;39539;52.202;9.876;2023-06-10T09:05:03;100925.44;;;34.59;36.95
19676;BME280;39539;52.202;9.876;2023-06-10T09:07:30;100920.06;;;33.76;38.58
19676;BME280;39539;52.202;9.876;2023-06-10T09:10:02;100923.97;;;33.75;38.67
19676;BME280;39539;52.202;9.876;2023-06-10T09:12:29;100922.41;;;35.29;36.20
19676;BME280;39539;52.202;9.876;2023-06-10T09:14:54;100907.38;;;34.65;36.76
19676;BME280;39539;52.202;9.876;2023-06-10T09:17:20;100907.78;;;35.06;36.83
19676;BME280;39539;52.202;9.876;2023-06-10T09:19:46;100896.13;;;33.48;38.46
19676;BME280;39539;52.202;9.876;2023-06-10T09:22:11;100912.09;;;33.90;38.55
19676;BME280;39539;52.202;9.876;2023-06-10T09:24:37;100925.53;;;34.27;38.17
19676;BME280;39539;52.202;9.876;2023-06-10T09:27:05;100907.00;;;34.08;38.67
19676;BME280;39539;52.202;9.876;2023-06-10T09:29:37;100918.88;;;33.77;39.79
19676;BME280;39539;52.202;9.876;2023-06-10T09:32:10;100922.06;;;34.50;37.67
19676;BME280;39539;52.202;9.876;2023-06-10T09:34:36;100906.88;;;34.79;37.92
19676;BME280;39539;52.202;9.876;2023-06-10T09:37:01;100912.81;;;33.87;38.71
19676;BME280;39539;52.202;9.876;2023-06-10T09:39:27;100903.00;;;33.39;39.86
19676;BME280;39539;52.202;9.876;2023-06-10T09:41:52;100921.09;;;33.87;38.93
19676;BME280;39539;52.202;9.876;2023-06-10T09:44:20;100914.72;;;33.67;40.77
19676;BME280;39539;52.202;9.876;2023-06-10T09:46:49;100909.56;;;33.34;40.21
19676;BME280;39539;52.202;9.876;2023-06-10T09:49:19;100910.47;;;32.78;41.00
19676;BME280;39539;52.202;9.876;2023-06-10T09:51:52;100931.41;;;33.90;41.03
19676;BME280;39539;52.202;9.876;2023-06-10T09:54:18;100917.00;;;34.71;39.27
19676;BME280;39539;52.202;9.876;2023-06-10T09:56:47;100914.81;;;33.07;41.59
19676;BME280;39539;52.202;9.876;2023-06-10T09:59:12;100915.44;;;33.64;40.26
19676;BME280;39539;52.202;9.876;2023-06-10T10:01:37;100914.19;;;33.46;41.06
19676;BME280;39539;52.202;9.876;2023-06-10T10:04:03;100916.34;;;33.21;41.57
19676;BME280;39539;52.202;9.876;2023-06-10T10:06:29;100912.91;;;33.91;40.06
19676;BME280;39539;52.202;9.876;2023-06-10T10:08:55;100909.69;;;33.53;41.08
19676;BME280;39539;52.202;9.876;2023-06-10T10:11:22;100916.78;;;32.79;42.15
19676;BME280;39539;52.202;9.876;2023-06-10T10:13:49;100924.31;;;34.25;39.98
19676;BME280;39539;52.202;9.876;2023-06-10T10:16:17;100910.47;;;34.05;40.06
19676;BME280;39539;52.202;9.876;2023-06-10T10:18:46;100907.66;;;32.91;42.33
19676;BME280;39539;52.202;9.876;2023-06-10T10:21:13;100916.19;;;33.96;39.99
19676;BME280;39539;52.202;9.876;2023-06-10T10:26:14;100905.13;;;33.29;41.82
19676;BME280;39539;52.202;9.876;2023-06-10T10:28:51;100901.56;;;32.69;42.40
19676;BME280;39539;52.202;9.876;2023-06-10T10:31:21;100899.81;;;31.71;43.47
19676;BME280;39539;52.202;9.876;2023-06-10T10:33:59;100915.06;;;30.99;45.15
19676;BME280;39539;52.202;9.876;2023-06-10T10:36:25;100910.31;;;30.33;46.23
19676;BME280;39539;52.202;9.876;2023-06-10T10:38:52;100901.09;;;28.84;49.62
19676;BME280;39539;52.202;9.876;2023-06-10T10:41:18;100912.72;;;28.46;52.05
19676;BME280;39539;52.202;9.876;2023-06-10T10:43:46;100920.84;;;27.31;53.37
19676;BME280;39539;52.202;9.876;2023-06-10T10:46:16;100921.56;;;26.33;57.42
19676;BME280;39539;52.202;9.876;2023-06-10T10:48:42;100927.31;;;26.32;57.82
19676;BME280;39539;52.202;9.876;2023-06-10T10:51:11;100936.88;;;27.02;56.48
19676;BME280;39539;52.202;9.876;2023-06-10T10:53:37;100933.53;;;27.05;57.30
19676;BME280;39539;52.202;9.876;2023-06-10T10:56:08;100935.69;;;26.94;57.26
19676;BME280;39539;52.202;9.876;2023-06-10T10:58:37;100935.28;;;27.01;56.02
19676;BME280;39539;52.202;9.876;2023-06-10T11:01:12;100942.97;;;26.76;58.12
19676;BME280;39539;52.202;9.876;2023-06-10T11:03:44;100947.81;;;27.02;56.63
19676;BME280;39539;52.202;9.876;2023-06-10T11:06:14;100954.00;;;27.39;55.82
19676;BME280;39539;52.202;9.876;2023-06-10T11:11:26;100945.69;;;26.76;58.63
19676;BME280;39539;52.202;9.876;2023-06-10T11:14:05;100953.91;;;27.21;58.41
19676;BME280;39539;52.202;9.876;2023-06-10T11:16:42;100942.22;;;26.62;57.49
19676;BME280;39539;52.202;9.876;2023-06-10T11:19:08;100942.09;;;26.90;55.89
19676;BME280;39539;52.202;9.876;2023-06-10T11:21:59;100938.47;;;26.58;57.98
19676;BME280;39539;52.202;9.876;2023-06-10T11:24:25;100929.88;;;26.01;57.87
19676;BME280;39539;52.202;9.876;2023-06-10T11:26:51;100931.31;;;26.62;55.94
19676;BME280;39539;52.202;9.876;2023-06-10T11:29:16;100928.81;;;26.74;56.02
19676;BME280;39539;52.202;9.876;2023-06-10T11:31:49;100926.59;;;26.76;56.96
19676;BME280;39539;52.202;9.876;2023-06-10T11:34:15;100932.16;;;26.71;58.35
19676;BME280;39539;52.202;9.876;2023-06-10T11:36:46;100921.63;;;26.56;59.03
19676;BME280;39539;52.202;9.876;2023-06-10T11:39:12;100929.94;;;26.51;57.07
19676;BME280;39539;52.202;9.876;2023-06-10T11:41:38;100914.44;;;26.60;57.57
19676;BME280;39539;52.202;9.876;2023-06-10T11:44:11;100934.91;;;26.71;58.49
19676;BME280;39539;52.202;9.876;2023-06-10T11:46:37;100925.59;;;26.95;57.71
19676;BME280;39539;52.202;9.876;2023-06-10T11:49:04;100938.94;;;27.19;55.08
19676;BME280;39539;52.202;9.876;2023-06-10T11:51:36;100916.31;;;26.96;55.88
19676;BME280;39539;52.202;9.876;2023-06-10T11:54:03;100917.66;;;27.07;55.69
19676;BME280;39539;52.202;9.876;2023-06-10T11:56:31;100914.56;;;26.77;56.13
19676;BME280;39539;52.202;9.876;2023-06-10T11:59:00;100915.38;;;26.78;56.50
19676;BME280;39539;52.202;9.876;2023-06-10T12:01:30;100925.75;;;26.90;56.87
19676;BME280;39539;52.202;9.876;2023-06-10T12:04:02;100932.41;;;26.83;55.00
19676;BME280;39539;52.202;9.876;2023-06-10T12:06:40;100920.75;;;27.14;54.42
19676;BME280;39539;52.202;9.876;2023-06-10T12:09:27;100927.81;;;27.15;55.56
19676;BME280;39539;52.202;9.876;2023-06-10T12:12:00;100925.34;;;27.27;55.51
19676;BME280;39539;52.202;9.876;2023-06-10T12:19:59;100925.22;;;27.33;54.56
19676;BME280;39539;52.202;9.876;2023-06-10T12:22:24;100924.22;;;26.83;54.74
19676;BME280;39539;52.202;9.876;2023-06-10T12:24:58;100909.28;;;27.03;54.86
19676;BME280;39539;52.202;9.876;2023-06-10T12:27:28;100917.28;;;27.22;54.02
19676;BME280;39539;52.202;9.876;2023-06-10T12:29:55;100917.16;;;27.27;53.35
19676;BME280;39539;52.202;9.876;2023-06-10T12:32:21;100912.91;;;27.44;52.12
19676;BME280;39539;52.202;9.876;2023-06-10T12:35:02;100923.00;;;27.35;52.81
19676;BME280;39539;52.202;9.876;2023-06-10T12:37:29;100913.34;;;27.37;52.75
19676;BME280;39539;52.202;9.876;2023-06-10T12:39:54;100914.03;;;27.51;52.67
19676;BME280;39539;52.202;9.876;2023-06-10T12:42:22;100902.63;;;27.41;53.62
19676;BME280;39539;52.202;9.876;2023-06-10T12:44:53;100889.72;;;27.33;53.20
19676;BME280;39539;52.202;9.876;2023-06-10T12:47:18;100900.81;;;27.36;53.33
19676;BME280;39539;52.202;9.876;2023-06-10T12:49:44;100870.78;;;27.05;54.49
19676;BME280;39539;52.202;9.876;2023-06-10T12:52:09;100892.16;;;27.43;53.73
19676;BME280;39539;52.202;9.876;2023-06-10T12:54:34;100885.78;;;27.16;53.67
19676;BME280;39539;52.202;9.876;2023-06-10T12:57:00;100879.78;;;27.14;54.37